createdAt,value
2023-02-28T00:01:45.215Z,80.85
2023-02-28T00:04:14.846Z,80.61
2023-02-28T00:06:43.505Z,80.11
2023-02-28T00:09:11.841Z,80.27
2023-02-28T00:11:40.117Z,79.96
2023-02-28T00:14:08.362Z,79.84
2023-02-28T00:16:36.675Z,79.37
2023-02-28T00:19:04.926Z,79.00
2023-02-28T00:21:34.547Z,78.29
2023-02-28T00:24:02.793Z,78.53
2023-02-28T00:26:31.118Z,78.65
2023-02-28T00:28:59.491Z,78.66
2023-02-28T00:31:28.055Z,78.62
2023-02-28T00:33:56.521Z,78.61
2023-02-28T00:36:24.769Z,78.47
2023-02-28T00:38:54.527Z,78.08
2023-02-28T00:41:22.820Z,78.02
2023-02-28T00:43:51.065Z,78.18
2023-02-28T00:46:19.654Z,77.50
2023-02-28T00:48:48.002Z,76.70
2023-02-28T00:51:16.568Z,76.34
2023-02-28T00:53:44.768Z,75.78
2023-02-28T00:56:14.677Z,74.62
2023-02-28T00:58:42.983Z,73.90
2023-02-28T01:01:11.426Z,73.99
2023-02-28T01:03:40.388Z,73.32
2023-02-28T01:06:08.994Z,73.22
2023-02-28T01:08:37.243Z,72.96
2023-02-28T01:11:10.611Z,72.13
2023-02-28T01:13:40.519Z,72.08
2023-02-28T01:16:09.345Z,71.80
2023-02-28T01:18:38.412Z,71.80
2023-02-28T01:21:07.435Z,72.16
2023-02-28T01:23:35.764Z,72.22
2023-02-28T01:26:08.817Z,72.44
2023-02-28T01:28:43.359Z,72.41
2023-02-28T01:31:12.188Z,72.42
2023-02-28T01:33:40.934Z,72.50
2023-02-28T01:36:11.916Z,72.49
2023-02-28T01:38:40.864Z,71.95
2023-02-28T01:41:10.068Z,71.95
2023-02-28T01:44:00.005Z,71.70
2023-02-28T01:46:28.296Z,71.57
2023-02-28T01:49:02.963Z,71.53
2023-02-28T01:51:36.903Z,70.80
2023-02-28T01:54:14.464Z,70.94
2023-02-28T01:56:46.744Z,70.91
2023-02-28T01:59:23.419Z,69.87
2023-02-28T02:01:52.199Z,69.13
2023-02-28T02:04:23.653Z,68.67
2023-02-28T02:06:52.112Z,68.39
2023-02-28T02:09:20.355Z,67.97
2023-02-28T02:11:49.097Z,67.78
2023-02-28T02:14:43.154Z,67.49
2023-02-28T02:17:21.046Z,67.23
2023-02-28T02:20:47.030Z,67.07
2023-02-28T02:23:46.893Z,66.81
2023-02-28T02:26:47.885Z,66.59
2023-02-28T02:29:55.669Z,66.52
2023-02-28T02:32:59.882Z,66.35
2023-02-28T02:35:33.779Z,66.32
2023-02-28T02:38:08.558Z,66.17
2023-02-28T02:40:42.887Z,65.94
2023-02-28T02:43:17.920Z,66.01
2023-02-28T02:45:50.196Z,65.88
2023-02-28T02:48:22.896Z,66.06
2023-02-28T02:50:57.522Z,66.07
2023-02-28T02:53:30.510Z,66.04
2023-02-28T02:56:03.637Z,66.27
2023-02-28T02:58:42.838Z,66.24
2023-02-28T03:01:14.571Z,66.37
2023-02-28T03:03:42.884Z,66.38
2023-02-28T03:06:12.517Z,66.36
2023-02-28T03:08:41.064Z,66.28
2023-02-28T03:11:15.913Z,66.34
2023-02-28T03:14:07.044Z,66.36
2023-02-28T03:16:38.795Z,66.75
2023-02-28T03:19:33.462Z,66.59
2023-02-28T03:22:19.440Z,66.69
2023-02-28T03:24:56.474Z,66.69
2023-02-28T03:27:29.997Z,66.83
2023-02-28T03:30:04.582Z,66.56
2023-02-28T03:32:37.377Z,66.88
2023-02-28T03:35:10.989Z,66.94
2023-02-28T03:37:44.061Z,66.97
2023-02-28T03:40:16.256Z,67.13
2023-02-28T03:42:49.932Z,67.43
2023-02-28T03:45:20.468Z,67.35
2023-02-28T03:47:54.553Z,67.89
2023-02-28T03:50:26.559Z,67.46
2023-02-28T03:53:05.722Z,67.25
2023-02-28T03:55:39.533Z,67.75
2023-02-28T03:58:13.392Z,67.74
2023-02-28T04:00:47.187Z,67.56
2023-02-28T04:03:16.024Z,67.47
2023-02-28T04:05:52.686Z,67.53
2023-02-28T04:08:23.755Z,67.74
2023-02-28T04:10:57.308Z,67.69
2023-02-28T04:13:25.705Z,67.84
2023-02-28T04:15:53.993Z,67.92
2023-02-28T04:18:22.229Z,67.84
2023-02-28T04:20:50.439Z,67.64
2023-02-28T04:23:18.642Z,67.78
2023-02-28T04:25:48.277Z,67.64
2023-02-28T04:28:16.535Z,67.62
2023-02-28T04:30:44.735Z,67.80
2023-02-28T04:33:13.136Z,67.92
2023-02-28T04:35:41.415Z,68.05
2023-02-28T04:38:09.672Z,67.76
2023-02-28T04:40:38.342Z,67.52
2023-02-28T04:43:07.963Z,67.31
2023-02-28T04:45:37.318Z,67.55
2023-02-28T04:48:05.937Z,67.50
2023-02-28T04:50:34.159Z,67.43
2023-02-28T04:53:02.353Z,67.58
2023-02-28T04:55:30.549Z,67.68
2023-02-28T04:57:58.838Z,67.66
2023-02-28T05:00:28.501Z,67.52
2023-02-28T05:02:56.715Z,67.57
2023-02-28T05:05:24.933Z,67.51
2023-02-28T05:07:54.545Z,67.52
2023-02-28T05:10:22.806Z,67.17
2023-02-28T05:12:51.046Z,67.39
2023-02-28T05:15:24.997Z,67.10
2023-02-28T05:17:54.683Z,67.26
2023-02-28T05:20:23.023Z,67.37
2023-02-28T05:22:52.888Z,67.49
2023-02-28T05:25:23.669Z,67.48
2023-02-28T05:27:51.948Z,67.50
2023-02-28T05:30:20.432Z,67.29
2023-02-28T05:32:52.879Z,67.38
2023-02-28T05:35:22.729Z,67.42
2023-02-28T05:37:51.108Z,67.46
2023-02-28T05:40:21.421Z,67.61
2023-02-28T05:42:51.909Z,67.45
2023-02-28T05:45:20.321Z,67.44
2023-02-28T05:47:48.514Z,67.36
2023-02-28T05:50:17.335Z,67.47
2023-02-28T05:52:50.798Z,68.00
2023-02-28T05:55:19.364Z,67.54
2023-02-28T05:57:47.610Z,67.71
2023-02-28T06:00:18.794Z,67.94
2023-02-28T06:02:47.064Z,67.87
2023-02-28T06:05:16.767Z,68.21
2023-02-28T06:07:46.690Z,68.17
2023-02-28T06:10:15.809Z,67.89
2023-02-28T06:12:44.143Z,68.01
2023-02-28T06:15:15.520Z,68.18
2023-02-28T06:17:44.505Z,68.04
2023-02-28T06:20:14.829Z,67.85
2023-02-28T06:22:43.852Z,67.90
2023-02-28T06:25:13.510Z,67.59
2023-02-28T06:27:41.958Z,68.32
2023-02-28T06:30:11.264Z,68.35
2023-02-28T06:32:40.274Z,68.26
2023-02-28T06:35:09.323Z,67.74
2023-02-28T06:37:40.227Z,67.65
2023-02-28T06:40:11.584Z,67.68
2023-02-28T06:42:41.389Z,68.02
2023-02-28T06:45:11.143Z,68.47
2023-02-28T06:47:41.499Z,68.26
2023-02-28T06:50:11.334Z,68.52
2023-02-28T06:52:40.284Z,68.71
2023-02-28T06:55:09.842Z,68.36
2023-02-28T06:57:38.690Z,69.07
2023-02-28T07:00:10.481Z,68.69
2023-02-28T07:02:39.890Z,69.04
2023-02-28T07:05:08.858Z,69.20
2023-02-28T07:07:39.131Z,68.85
2023-02-28T07:10:08.158Z,68.98
2023-02-28T07:12:36.394Z,69.68
2023-02-28T07:15:05.055Z,68.18
2023-02-28T07:17:34.639Z,68.97
2023-02-28T07:20:05.547Z,68.97
2023-02-28T07:22:33.962Z,68.76
2023-02-28T07:25:02.215Z,68.64
2023-02-28T07:27:30.434Z,69.72
2023-02-28T07:29:58.818Z,68.75
2023-02-28T07:32:27.231Z,69.03
2023-02-28T07:34:57.232Z,68.59
2023-02-28T07:37:25.491Z,69.77
2023-02-28T07:39:53.783Z,69.44
2023-02-28T07:42:22.383Z,68.55
2023-02-28T07:44:54.011Z,69.86
2023-02-28T07:47:24.516Z,69.00
2023-02-28T07:49:53.739Z,69.58
2023-02-28T07:52:24.555Z,69.55
2023-02-28T07:54:53.193Z,69.29
2023-02-28T07:57:21.428Z,68.23
2023-02-28T07:59:49.637Z,69.56
2023-02-28T08:02:20.571Z,69.78
2023-02-28T08:04:49.832Z,69.13
2023-02-28T08:07:19.943Z,69.84
2023-02-28T08:09:49.574Z,69.55
2023-02-28T08:12:17.794Z,70.02
2023-02-28T08:14:46.065Z,69.29
2023-02-28T08:17:29.173Z,70.16
2023-02-28T08:20:12.344Z,69.72
2023-02-28T08:22:40.684Z,70.45
2023-02-28T08:25:11.616Z,69.78
2023-02-28T08:27:40.053Z,70.13
2023-02-28T08:30:10.832Z,71.30
2023-02-28T08:32:39.476Z,70.64
2023-02-28T08:35:10.136Z,71.90
2023-02-28T08:37:39.017Z,69.94
2023-02-28T08:40:09.051Z,71.15
2023-02-28T08:42:39.080Z,71.06
2023-02-28T08:45:08.570Z,70.41
2023-02-28T08:47:36.768Z,69.87
2023-02-28T08:50:05.583Z,70.62
2023-02-28T08:52:33.819Z,70.43
2023-02-28T08:55:02.065Z,70.10
2023-02-28T08:57:30.295Z,70.97
2023-02-28T08:59:59.892Z,71.45
2023-02-28T09:02:28.169Z,70.19
2023-02-28T09:04:56.534Z,68.77
2023-02-28T09:07:24.891Z,68.98
2023-02-28T09:09:56.381Z,68.97
2023-02-28T09:12:25.197Z,69.45
2023-02-28T09:14:53.974Z,68.54
2023-02-28T09:17:23.905Z,69.65
2023-02-28T09:19:52.154Z,70.29
2023-02-28T09:22:20.389Z,69.81
2023-02-28T09:24:48.614Z,70.99
2023-02-28T09:27:16.864Z,71.49
2023-02-28T09:29:45.257Z,98.42
2023-02-28T09:32:13.513Z,98.45
2023-02-28T09:34:43.184Z,97.16
2023-02-28T09:37:11.516Z,97.03
2023-02-28T09:39:40.048Z,96.86
2023-02-28T09:42:16.268Z,96.81
2023-02-28T09:44:47.853Z,97.28
2023-02-28T09:47:24.064Z,95.21
2023-02-28T09:49:53.829Z,94.81
2023-02-28T09:52:32.214Z,92.54
2023-02-28T09:55:08.330Z,92.69
2023-02-28T09:57:40.902Z,92.55
2023-02-28T10:00:19.437Z,92.81
2023-02-28T10:03:08.779Z,92.44
2023-02-28T10:05:44.356Z,93.64
2023-02-28T10:08:16.660Z,92.77
2023-02-28T10:10:46.747Z,93.16
2023-02-28T10:13:22.744Z,92.93
2023-02-28T10:15:56.786Z,93.74
2023-02-28T10:18:29.164Z,93.40
2023-02-28T10:20:59.105Z,92.54
2023-02-28T10:23:30.839Z,92.92
2023-02-28T10:26:02.614Z,91.50
2023-02-28T10:28:33.067Z,92.54
2023-02-28T10:31:01.583Z,92.95
2023-02-28T10:33:32.328Z,92.75
2023-02-28T10:36:02.869Z,92.08
2023-02-28T10:38:35.461Z,93.24
2023-02-28T10:41:07.830Z,90.78
2023-02-28T10:43:38.686Z,92.40
2023-02-28T10:46:16.392Z,93.11
2023-02-28T10:48:48.964Z,91.03
2023-02-28T10:51:21.042Z,91.63
2023-02-28T10:54:02.344Z,90.44
2023-02-28T10:56:32.344Z,87.85
2023-02-28T10:59:02.466Z,87.27
2023-02-28T11:01:39.646Z,87.18
2023-02-28T11:04:20.208Z,85.34
2023-02-28T11:06:50.427Z,86.15
2023-02-28T11:09:25.069Z,86.28
2023-02-28T11:11:53.999Z,87.01
2023-02-28T11:14:24.339Z,86.23
2023-02-28T11:16:54.138Z,85.80
2023-02-28T11:19:27.360Z,86.09
2023-02-28T11:22:01.391Z,85.13
2023-02-28T11:24:34.001Z,85.11
2023-02-28T11:27:02.278Z,83.31
2023-02-28T11:29:32.333Z,83.96
2023-02-28T11:32:14.059Z,82.20
2023-02-28T11:34:43.384Z,82.44
2023-02-28T11:37:18.499Z,82.56
2023-02-28T11:39:47.653Z,83.23
2023-02-28T11:42:34.131Z,82.72
2023-02-28T11:45:19.173Z,82.85
2023-02-28T11:47:50.933Z,82.22
2023-02-28T11:50:28.835Z,81.30
2023-02-28T11:53:02.548Z,81.49
2023-02-28T11:55:34.855Z,81.73
2023-02-28T11:58:26.409Z,81.80
2023-02-28T12:01:09.404Z,80.75
2023-02-28T12:03:47.043Z,80.42
2023-02-28T12:06:25.900Z,79.66
2023-02-28T12:09:07.358Z,77.83
2023-02-28T12:11:48.202Z,79.50
2023-02-28T12:14:46.407Z,77.51
2023-02-28T12:17:30.221Z,78.68
2023-02-28T12:20:07.164Z,77.75
2023-02-28T12:22:38.853Z,74.93
2023-02-28T12:25:26.719Z,74.25
2023-02-28T12:27:55.594Z,74.05
2023-02-28T12:30:26.872Z,76.70
2023-02-28T12:32:58.841Z,75.15
2023-02-28T12:35:30.453Z,74.88
2023-02-28T12:38:05.399Z,74.15
2023-02-28T12:40:45.807Z,74.57
2023-02-28T12:43:16.896Z,74.62
2023-02-28T12:45:49.645Z,74.69
2023-02-28T12:48:26.550Z,74.39
2023-02-28T12:50:55.395Z,74.78
2023-02-28T12:53:29.906Z,74.40
2023-02-28T12:56:10.712Z,75.02
2023-02-28T12:58:43.669Z,73.76
2023-02-28T13:01:41.136Z,73.80
2023-02-28T13:04:34.363Z,72.74
2023-02-28T13:07:16.133Z,73.74
2023-02-28T13:09:54.916Z,73.96
2023-02-28T13:12:25.114Z,73.10
2023-02-28T13:15:02.526Z,74.25
2023-02-28T13:17:31.724Z,74.07
2023-02-28T13:20:01.500Z,74.04
2023-02-28T13:22:42.563Z,73.37
2023-02-28T13:25:50.730Z,73.92
2023-02-28T13:29:05.383Z,73.18
2023-02-28T13:31:55.561Z,72.99
2023-02-28T13:34:23.943Z,73.52
2023-02-28T13:36:52.209Z,73.64
2023-02-28T13:39:49.919Z,72.58
2023-02-28T13:42:38.366Z,72.35
2023-02-28T13:45:31.002Z,72.41
2023-02-28T13:48:03.794Z,72.35
2023-02-28T13:50:38.869Z,72.24
2023-02-28T13:53:41.560Z,72.38
2023-02-28T13:56:23.428Z,73.12
2023-02-28T13:58:56.830Z,73.97
2023-02-28T14:01:45.969Z,72.45
2023-02-28T14:04:41.480Z,74.46
2023-02-28T14:07:11.712Z,73.63
2023-02-28T14:09:47.584Z,73.32
2023-02-28T14:12:53.281Z,73.51
2023-02-28T14:15:41.994Z,73.80
2023-02-28T14:18:22.698Z,73.56
2023-02-28T14:20:56.981Z,72.90
2023-02-28T14:23:41.428Z,72.65
2023-02-28T14:26:22.968Z,74.03
2023-02-28T14:29:04.458Z,73.11
2023-02-28T14:31:39.037Z,74.67
2023-02-28T14:34:23.130Z,74.70
2023-02-28T14:36:55.277Z,74.27
2023-02-28T14:39:26.429Z,74.16
2023-02-28T14:41:55.572Z,74.57
2023-02-28T14:44:25.538Z,74.43
2023-02-28T14:46:56.621Z,75.27
2023-02-28T14:49:31.216Z,74.93
2023-02-28T14:52:14.075Z,75.08
2023-02-28T14:54:43.411Z,74.63
2023-02-28T14:57:24.211Z,74.73
2023-02-28T15:00:00.794Z,74.31
2023-02-28T15:02:33.688Z,74.33
2023-02-28T15:05:04.495Z,74.22
2023-02-28T15:07:34.159Z,73.45
2023-02-28T15:10:24.961Z,74.64
2023-02-28T15:12:57.409Z,75.09
2023-02-28T15:15:40.588Z,74.99
2023-02-28T15:18:23.589Z,75.66
2023-02-28T15:20:53.232Z,75.31
2023-02-28T15:23:24.037Z,74.92
2023-02-28T15:25:53.763Z,74.31
2023-02-28T15:28:24.774Z,72.58
2023-02-28T15:30:55.312Z,72.09
2023-02-28T15:33:25.961Z,72.06
2023-02-28T15:36:06.326Z,72.34
2023-02-28T15:38:38.536Z,73.64
2023-02-28T15:41:09.302Z,73.61
2023-02-28T15:43:40.346Z,73.26
2023-02-28T15:46:10.762Z,73.57
2023-02-28T15:48:46.444Z,74.93
2023-02-28T15:51:20.964Z,76.14
2023-02-28T15:53:54.354Z,77.18
2023-02-28T15:56:27.391Z,76.94
2023-02-28T15:58:57.253Z,77.03
2023-02-28T16:01:29.566Z,77.18
2023-02-28T16:04:01.717Z,77.82
2023-02-28T16:06:39.108Z,78.08
2023-02-28T16:09:12.862Z,78.38
2023-02-28T16:11:46.751Z,78.11
2023-02-28T16:14:19.264Z,77.90
2023-02-28T16:16:49.315Z,78.56
2023-02-28T16:19:17.869Z,78.69
2023-02-28T16:21:46.193Z,79.56
2023-02-28T16:24:15.820Z,79.09
2023-02-28T16:26:49.232Z,79.18
2023-02-28T16:29:25.000Z,79.37
2023-02-28T16:31:54.422Z,79.10
2023-02-28T16:34:23.263Z,79.98
2023-02-28T16:36:51.923Z,80.17
2023-02-28T16:39:22.223Z,80.29
2023-02-28T16:41:52.300Z,80.04
2023-02-28T16:44:30.033Z,80.51
2023-02-28T16:46:58.580Z,80.94
2023-02-28T16:49:26.992Z,80.50
2023-02-28T16:51:55.445Z,80.56
2023-02-28T16:54:25.147Z,80.58
2023-02-28T16:56:53.382Z,80.49
2023-02-28T16:59:25.069Z,80.98
2023-02-28T17:01:53.706Z,80.89
2023-02-28T17:04:22.190Z,80.60
2023-02-28T17:06:50.475Z,80.89
2023-02-28T17:09:20.986Z,80.93
2023-02-28T17:11:51.530Z,80.47
2023-02-28T17:14:19.784Z,80.58
2023-02-28T17:16:48.225Z,80.94
2023-02-28T17:19:18.678Z,80.78
2023-02-28T17:21:47.154Z,80.56
2023-02-28T17:24:22.141Z,80.61
2023-02-28T17:26:52.019Z,80.97
2023-02-28T17:29:22.149Z,81.21
2023-02-28T17:31:50.575Z,81.57
2023-02-28T17:34:20.705Z,81.39
2023-02-28T17:36:53.088Z,81.48
2023-02-28T17:39:25.274Z,81.85
2023-02-28T17:41:55.060Z,81.82
2023-02-28T17:44:25.006Z,82.17
2023-02-28T17:46:54.139Z,82.50
2023-02-28T17:49:22.989Z,82.44
2023-02-28T17:51:51.549Z,82.49
2023-02-28T17:54:19.844Z,82.55
2023-02-28T17:56:48.369Z,82.84
2023-02-28T17:59:18.015Z,82.27
2023-02-28T18:01:46.467Z,82.27
2023-02-28T18:04:14.746Z,82.94
2023-02-28T18:06:50.999Z,83.18
2023-02-28T18:09:22.608Z,82.70
2023-02-28T18:11:51.152Z,82.94
2023-02-28T18:14:23.738Z,83.52
2023-02-28T18:16:53.196Z,83.02
2023-02-28T18:19:21.931Z,82.97
2023-02-28T18:21:52.091Z,83.35
2023-02-28T18:24:21.477Z,83.08
2023-02-28T18:26:50.082Z,83.09
2023-02-28T18:29:22.004Z,83.00
2023-02-28T18:31:50.827Z,83.49
2023-02-28T18:34:19.235Z,82.94
2023-02-28T18:36:48.489Z,83.42
2023-02-28T18:39:17.378Z,83.10
2023-02-28T18:41:45.720Z,83.39
2023-02-28T18:44:20.105Z,83.38
2023-02-28T18:46:51.270Z,83.07
2023-02-28T18:49:19.994Z,83.39
2023-02-28T18:51:49.016Z,83.19
2023-02-28T18:54:18.362Z,83.29
2023-02-28T18:56:47.069Z,83.42
2023-02-28T18:59:15.491Z,83.01
2023-02-28T19:01:46.601Z,83.79
2023-02-28T19:04:16.638Z,83.17
2023-02-28T19:06:44.961Z,83.61
2023-02-28T19:09:13.266Z,83.18
2023-02-28T19:11:43.346Z,83.26
2023-02-28T19:14:11.591Z,83.62
2023-02-28T19:16:39.897Z,83.80
2023-02-28T19:19:08.181Z,83.42
2023-02-28T19:21:37.787Z,83.29
2023-02-28T19:24:06.706Z,83.71
2023-02-28T19:26:35.201Z,83.79
2023-02-28T19:29:04.800Z,83.25
2023-02-28T19:31:33.663Z,83.72
2023-02-28T19:34:02.407Z,83.26
2023-02-28T19:36:30.685Z,83.41
2023-02-28T19:39:00.326Z,83.24
2023-02-28T19:41:29.146Z,83.07
2023-02-28T19:43:57.626Z,82.71
2023-02-28T19:46:26.219Z,83.26
2023-02-28T19:48:55.217Z,82.96
2023-02-28T19:51:24.803Z,83.61
2023-02-28T19:53:53.117Z,83.20
2023-02-28T19:56:22.919Z,83.20
2023-02-28T19:58:51.388Z,83.52
2023-02-28T20:01:21.410Z,83.24
2023-02-28T20:03:51.342Z,83.42
2023-02-28T20:06:20.123Z,83.10
2023-02-28T20:08:48.431Z,83.06
2023-02-28T20:11:18.412Z,83.61
2023-02-28T20:13:48.423Z,82.91
2023-02-28T20:16:17.149Z,83.03
2023-02-28T20:18:46.172Z,83.29
2023-02-28T20:21:16.601Z,82.83
2023-02-28T20:23:47.470Z,83.37
2023-02-28T20:26:16.323Z,82.81
2023-02-28T20:28:45.314Z,82.94
2023-02-28T20:31:16.573Z,82.28
2023-02-28T20:33:46.935Z,82.45
2023-02-28T20:36:15.920Z,82.46
2023-02-28T20:38:44.339Z,82.47
2023-02-28T20:41:13.111Z,82.29
2023-02-28T20:43:42.574Z,82.27
2023-02-28T20:46:11.284Z,82.36
2023-02-28T20:48:41.849Z,82.22
2023-02-28T20:51:10.418Z,81.08
2023-02-28T20:53:39.772Z,81.68
2023-02-28T20:56:11.457Z,81.64
2023-02-28T20:58:40.559Z,81.59
2023-02-28T21:01:12.926Z,80.65
2023-02-28T21:03:43.431Z,80.62
2023-02-28T21:06:11.716Z,80.91
2023-02-28T21:08:41.348Z,80.37
2023-02-28T21:11:10.860Z,80.78
2023-02-28T21:13:39.970Z,80.11
2023-02-28T21:16:09.857Z,79.70
2023-02-28T21:18:39.242Z,78.70
2023-02-28T21:21:10.453Z,78.87
2023-02-28T21:23:39.786Z,78.34
2023-02-28T21:26:09.926Z,78.21
2023-02-28T21:28:44.255Z,77.89
2023-02-28T21:31:14.841Z,77.55
2023-02-28T21:33:44.092Z,77.37
2023-02-28T21:36:15.666Z,76.59
2023-02-28T21:38:44.832Z,76.77
2023-02-28T21:41:15.956Z,76.36
2023-02-28T21:43:45.640Z,76.55
2023-02-28T21:46:16.721Z,75.37
2023-02-28T21:48:45.645Z,76.36
2023-02-28T21:51:17.178Z,76.30
2023-02-28T21:53:45.666Z,77.20
2023-02-28T21:56:16.085Z,77.51
2023-02-28T21:58:44.405Z,75.57
2023-02-28T22:01:14.888Z,76.92
2023-02-28T22:03:44.066Z,76.89
2023-02-28T22:06:14.002Z,75.32
2023-02-28T22:08:45.300Z,76.31
2023-02-28T22:11:14.592Z,76.18
2023-02-28T22:13:43.399Z,76.31
2023-02-28T22:16:14.353Z,75.91
2023-02-28T22:18:43.186Z,76.58
2023-02-28T22:21:12.811Z,75.54
2023-02-28T22:23:44.574Z,76.41
2023-02-28T22:26:15.788Z,76.12
2023-02-28T22:28:44.124Z,75.52
2023-02-28T22:31:17.622Z,75.74
2023-02-28T22:33:47.000Z,76.22
2023-02-28T22:36:17.176Z,76.92
2023-02-28T22:38:48.180Z,76.76
2023-02-28T22:41:16.472Z,76.21
2023-02-28T22:43:45.283Z,76.35
2023-02-28T22:46:14.788Z,75.98
2023-02-28T22:48:43.065Z,75.87
2023-02-28T22:51:14.763Z,75.84
2023-02-28T22:53:45.234Z,75.77
2023-02-28T22:56:16.202Z,75.74
2023-02-28T22:58:45.731Z,76.01
2023-02-28T23:01:15.928Z,76.05
2023-02-28T23:03:44.849Z,75.88
2023-02-28T23:06:15.891Z,75.99
2023-02-28T23:08:44.584Z,75.76
2023-02-28T23:11:19.233Z,75.94
2023-02-28T23:13:58.388Z,75.47
2023-02-28T23:16:30.037Z,75.26
2023-02-28T23:19:00.447Z,75.27
2023-02-28T23:21:29.214Z,75.50
2023-02-28T23:23:57.606Z,75.34
2023-02-28T23:26:27.250Z,75.31
2023-02-28T23:28:56.158Z,74.60
2023-02-28T23:31:24.917Z,74.88
2023-02-28T23:33:53.217Z,75.16
2023-02-28T23:36:21.689Z,75.31
2023-02-28T23:38:51.486Z,75.57
2023-02-28T23:41:21.269Z,75.64
2023-02-28T23:43:50.972Z,75.47
2023-02-28T23:46:19.429Z,75.21
2023-02-28T23:48:47.907Z,75.67
2023-02-28T23:51:18.425Z,75.48
2023-02-28T23:53:48.827Z,75.55
2023-02-28T23:56:19.415Z,75.34
2023-02-28T23:58:48.570Z,75.37
